createdAt,value
2022-09-05T00:00:23.012Z,16.70
2022-09-05T00:06:02.798Z,16.70
2022-09-05T00:11:40.551Z,16.70
2022-09-05T00:16:50.185Z,16.60
2022-09-05T00:24:32.509Z,16.60
2022-09-05T00:27:56.005Z,16.50
2022-09-05T00:33:02.971Z,16.50
2022-09-05T00:38:29.096Z,16.40
2022-09-05T00:43:45.063Z,16.30
2022-09-05T00:48:50.981Z,16.30
2022-09-05T00:54:26.338Z,16.20
2022-09-05T01:00:17.656Z,16.20
2022-09-05T01:05:55.445Z,16.20
2022-09-05T01:11:19.970Z,16.10
2022-09-05T01:17:00.032Z,16.10
2022-09-05T01:23:10.000Z,16.10
2022-09-05T01:29:14.393Z,16.00
2022-09-05T01:34:07.793Z,16.00
2022-09-05T01:40:11.635Z,16.00
2022-09-05T01:45:03.383Z,15.90
2022-09-05T01:50:32.843Z,15.80
2022-09-05T01:56:05.206Z,15.80
2022-09-05T02:01:32.390Z,15.70
2022-09-05T02:06:43.908Z,15.60
2022-09-05T02:11:59.960Z,15.60
2022-09-05T02:17:50.367Z,15.50
2022-09-05T02:22:56.781Z,15.50
2022-09-05T02:28:12.455Z,15.50
2022-09-05T02:33:25.912Z,15.40
2022-09-05T02:40:12.558Z,15.40
2022-09-05T02:45:18.939Z,15.40
2022-09-05T02:52:21.275Z,15.40
2022-09-05T02:57:33.270Z,15.30
2022-09-05T03:01:38.075Z,15.30
2022-09-05T03:07:02.006Z,15.30
2022-09-05T03:12:41.412Z,15.20
2022-09-05T03:18:20.079Z,15.20
2022-09-05T03:23:50.479Z,15.20
2022-09-05T03:29:18.666Z,15.10
2022-09-05T03:34:39.253Z,15.10
2022-09-05T03:40:15.221Z,15.00
2022-09-05T03:45:37.773Z,15.00
2022-09-05T03:57:04.493Z,15.00
2022-09-05T03:57:27.458Z,14.90
2022-09-05T04:04:14.304Z,14.80
2022-09-05T04:08:18.782Z,14.80
2022-09-05T04:13:33.910Z,14.80
2022-09-05T04:18:47.944Z,14.80
2022-09-05T04:24:20.054Z,14.70
2022-09-05T04:29:45.273Z,14.70
2022-09-05T04:35:22.344Z,14.70
2022-09-05T04:40:44.644Z,14.60
2022-09-05T04:45:53.473Z,14.60
2022-09-05T04:51:40.271Z,14.60
2022-09-05T04:56:49.502Z,14.60
2022-09-05T05:06:12.395Z,14.60
2022-09-05T05:07:25.114Z,14.70
2022-09-05T05:18:02.674Z,14.60
2022-09-05T05:18:39.651Z,14.70
2022-09-05T05:23:52.022Z,14.70
2022-09-05T05:29:06.518Z,14.80
2022-09-05T05:34:37.054Z,14.80
2022-09-05T05:39:45.242Z,14.90
2022-09-05T05:44:53.833Z,15.00
2022-09-05T05:50:20.045Z,15.00
2022-09-05T05:55:51.357Z,15.00
2022-09-05T06:00:55.132Z,15.10
2022-09-05T06:06:14.901Z,15.10
2022-09-05T06:15:00.913Z,15.10
2022-09-05T06:17:44.169Z,15.20
2022-09-05T06:23:33.468Z,15.30
2022-09-05T06:29:05.929Z,15.40
2022-09-05T06:34:30.894Z,15.50
2022-09-05T06:40:08.718Z,15.60
2022-09-05T06:45:27.822Z,15.90
2022-09-05T06:51:08.477Z,16.00
2022-09-05T06:56:14.433Z,16.30
2022-09-05T07:01:57.912Z,16.60
2022-09-05T07:07:06.434Z,16.70
2022-09-05T07:12:18.897Z,16.90
2022-09-05T07:18:06.219Z,17.20
2022-09-05T07:23:54.835Z,17.40
2022-09-05T07:28:44.661Z,17.50
2022-09-05T07:33:49.240Z,17.70
2022-09-05T07:39:12.271Z,17.70
2022-09-05T07:44:46.288Z,17.90
2022-09-05T07:50:32.440Z,18.00
2022-09-05T07:57:07.804Z,18.30
2022-09-05T08:00:58.338Z,18.40
2022-09-05T08:06:07.336Z,18.30
2022-09-05T08:11:23.362Z,18.20
2022-09-05T08:16:27.970Z,18.40
2022-09-05T08:21:48.744Z,18.80
2022-09-05T08:27:15.960Z,19.10
2022-09-05T08:32:34.693Z,19.30
2022-09-05T08:37:37.564Z,19.50
2022-09-05T08:44:58.230Z,19.60
2022-09-05T08:48:20.909Z,19.40
2022-09-05T08:53:46.154Z,19.30
2022-09-05T08:59:32.181Z,19.50
2022-09-05T09:05:01.573Z,19.50
2022-09-05T09:10:05.035Z,19.80
2022-09-05T09:15:20.978Z,19.90
2022-09-05T09:20:47.004Z,20.10
2022-09-05T09:26:11.116Z,20.50
2022-09-05T09:31:16.595Z,20.60
2022-09-05T09:36:43.342Z,20.80
2022-09-05T09:41:48.221Z,21.10
2022-09-05T09:46:51.897Z,21.00
2022-09-05T09:52:06.997Z,21.10
2022-09-05T09:57:41.723Z,21.40
2022-09-05T10:06:49.560Z,21.60
2022-09-05T10:10:51.118Z,21.50
2022-09-05T10:14:50.030Z,21.80
2022-09-05T10:20:39.840Z,22.20
2022-09-05T10:26:10.389Z,22.40
2022-09-05T10:33:28.545Z,22.00
2022-09-05T10:36:54.925Z,21.90
2022-09-05T10:42:25.259Z,22.20
2022-09-05T10:47:48.261Z,22.30
2022-09-05T10:53:07.849Z,22.20
2022-09-05T11:01:29.693Z,22.70
2022-09-05T11:04:37.085Z,22.60
2022-09-05T11:10:07.134Z,22.90
2022-09-05T11:15:33.620Z,22.80
2022-09-05T11:20:44.596Z,22.70
2022-09-05T11:25:51.068Z,23.10
2022-09-05T11:30:56.599Z,23.10
2022-09-05T11:40:07.455Z,23.00
2022-09-05T11:42:17.834Z,23.10
2022-09-05T11:48:04.278Z,23.40
2022-09-05T11:53:27.085Z,23.50
2022-09-05T11:58:56.998Z,23.40
2022-09-05T12:04:17.224Z,23.60
2022-09-05T12:09:34.059Z,23.50
2022-09-05T12:14:55.081Z,23.80
2022-09-05T12:20:16.761Z,23.80
2022-09-05T12:27:38.661Z,23.90
2022-09-05T12:32:41.782Z,23.90
2022-09-05T12:40:44.540Z,24.10
2022-09-05T12:42:51.138Z,24.50
2022-09-05T12:48:09.404Z,24.50
2022-09-05T12:53:18.554Z,25.00
2022-09-05T13:02:57.874Z,25.30
2022-09-05T13:04:17.201Z,25.50
2022-09-05T13:10:14.276Z,25.80
2022-09-05T13:15:18.653Z,26.00
2022-09-05T13:20:34.180Z,25.40
2022-09-05T13:25:37.381Z,26.40
2022-09-05T13:37:54.078Z,26.20
2022-09-05T13:38:19.753Z,26.90
2022-09-05T13:41:59.315Z,27.00
2022-09-05T13:47:28.759Z,26.60
2022-09-05T13:52:37.759Z,27.60
2022-09-05T13:57:51.133Z,28.10
2022-09-05T14:15:10.166Z,27.40
2022-09-05T14:20:24.121Z,27.50
2022-09-05T14:25:34.445Z,28.70
2022-09-05T14:33:45.375Z,27.80
2022-09-05T14:37:40.948Z,28.80
2022-09-05T14:42:09.392Z,30.50
2022-09-05T14:47:32.282Z,31.00
2022-09-05T14:52:43.541Z,30.50
2022-09-05T15:02:58.243Z,31.20
2022-09-05T15:03:12.493Z,29.80
2022-09-05T15:09:53.618Z,28.70
2022-09-05T15:13:57.019Z,26.80
2022-09-05T15:18:58.876Z,26.60
2022-09-05T15:24:13.427Z,26.80
2022-09-05T15:29:15.649Z,26.00
2022-09-05T15:34:26.295Z,25.60
2022-09-05T15:39:34.163Z,25.80
2022-09-05T15:44:53.252Z,25.50
2022-09-05T15:50:01.660Z,25.40
2022-09-05T15:55:12.009Z,25.20
2022-09-05T16:00:32.165Z,25.10
2022-09-05T16:10:37.191Z,24.60
2022-09-05T16:23:18.357Z,24.50
2022-09-05T16:23:32.267Z,23.80
2022-09-05T16:28:34.821Z,23.50
2022-09-05T16:33:36.956Z,23.60
2022-09-05T16:38:49.445Z,23.30
2022-09-05T16:44:10.807Z,23.20
2022-09-05T16:49:42.063Z,23.20
2022-09-05T16:55:03.798Z,23.20
2022-09-05T17:00:08.489Z,23.10
2022-09-05T17:05:29.801Z,22.80
2022-09-05T17:10:58.226Z,22.70
2022-09-05T17:16:09.144Z,22.30
2022-09-05T17:21:29.998Z,22.20
2022-09-05T17:29:45.583Z,22.00
2022-09-05T17:32:10.829Z,21.80
2022-09-05T17:37:49.080Z,21.80
2022-09-05T17:43:03.665Z,21.80
2022-09-05T17:48:05.532Z,21.70
2022-09-05T17:53:26.845Z,21.50
2022-09-05T17:58:36.262Z,21.40
2022-09-05T18:03:53.039Z,21.30
2022-09-05T18:08:56.341Z,21.20
2022-09-05T18:14:02.239Z,21.10
2022-09-05T18:19:33.591Z,21.00
2022-09-05T18:24:52.492Z,20.90
2022-09-05T18:30:05.908Z,20.80
2022-09-05T18:35:37.283Z,20.60
2022-09-05T18:40:53.355Z,20.50
2022-09-05T18:46:13.598Z,20.40
2022-09-05T18:51:20.143Z,20.30
2022-09-05T18:56:28.190Z,20.20
2022-09-05T19:02:01.076Z,20.20
2022-09-05T19:07:18.305Z,20.10
2022-09-05T19:12:34.909Z,20.00
2022-09-05T19:17:47.172Z,19.90
2022-09-05T19:23:11.051Z,19.80
2022-09-05T19:36:56.640Z,19.70
2022-09-05T19:37:13.089Z,19.70
2022-09-05T19:42:20.032Z,19.50
2022-09-05T19:47:42.049Z,19.50
2022-09-05T19:49:58.502Z,19.40
2022-09-05T19:55:02.142Z,19.30
2022-09-05T20:00:05.179Z,19.20
2022-09-05T20:05:27.471Z,19.10
2022-09-05T20:10:35.180Z,19.10
2022-09-05T20:15:37.518Z,19.00
2022-09-05T20:20:54.259Z,18.90
2022-09-05T20:25:57.947Z,18.90
2022-09-05T20:31:08.518Z,18.80
2022-09-05T20:43:22.465Z,18.60
2022-09-05T20:43:32.278Z,18.70
2022-09-05T20:49:27.363Z,18.50
2022-09-05T20:54:18.675Z,18.50
2022-09-05T20:58:31.695Z,18.40
2022-09-05T21:03:39.908Z,18.30
2022-09-05T21:08:41.802Z,18.40
2022-09-05T21:13:52.488Z,18.30
2022-09-05T21:18:55.085Z,18.30
2022-09-05T21:24:17.587Z,18.20
2022-09-05T21:29:32.337Z,18.20
2022-09-05T21:34:45.367Z,18.20
2022-09-05T21:39:59.678Z,18.10
2022-09-05T21:47:39.315Z,18.10
2022-09-05T21:50:31.354Z,18.00
2022-09-05T21:59:20.627Z,17.90
2022-09-05T22:00:57.064Z,17.80
2022-09-05T22:05:59.159Z,17.70
2022-09-05T22:11:10.689Z,17.60
2022-09-05T22:16:15.048Z,17.60
2022-09-05T22:21:32.853Z,17.50
2022-09-05T22:26:52.113Z,17.40
2022-09-05T22:32:05.242Z,17.40
2022-09-05T22:37:07.029Z,17.30
2022-09-05T22:42:10.619Z,17.30
2022-09-05T22:47:12.756Z,17.20
2022-09-05T22:52:14.499Z,17.20
2022-09-05T22:57:16.293Z,17.10
2022-09-05T23:02:18.018Z,17.00
2022-09-05T23:07:20.926Z,17.00
2022-09-05T23:12:22.689Z,16.90
2022-09-05T23:17:24.504Z,16.90
2022-09-05T23:22:26.277Z,16.80
2022-09-05T23:27:29.889Z,16.80
2022-09-05T23:32:31.717Z,16.70
2022-09-05T23:37:33.486Z,16.70
2022-09-05T23:42:35.281Z,16.60
2022-09-05T23:47:38.672Z,16.60
2022-09-05T23:52:42.370Z,16.50
2022-09-05T23:57:44.782Z,16.50
